sensor_id;sensor_type;location;lat;lon;timestamp;pressure;altitude;pressure_sealevel;temperature;humidity
31911;BME280;18457;52.432;16.914;2023-04-16T00:01:05;100300.16;;;10.71;100.00
31911;BME280;18457;52.432;16.914;2023-04-16T00:03:37;100302.42;;;10.68;100.00
31911;BME280;18457;52.432;16.914;2023-04-16T00:06:10;100302.14;;;10.71;100.00
31911;BME280;18457;52.432;16.914;2023-04-16T00:08:43;100301.44;;;10.77;100.00
31911;BME280;18457;52.432;16.914;2023-04-16T00:11:15;100301.94;;;10.72;100.00
31911;BME280;18457;52.432;16.914;2023-04-16T00:13:47;100312.30;;;10.70;100.00
31911;BME280;18457;52.432;16.914;2023-04-16T00:16:19;100309.50;;;10.74;100.00
31911;BME280;18457;52.432;16.914;2023-04-16T00:18:51;100312.88;;;10.75;100.00
31911;BME280;18457;52.432;16.914;2023-04-16T00:21:23;100315.49;;;10.72;100.00
31911;BME280;18457;52.432;16.914;2023-04-16T00:23:54;100316.81;;;10.70;100.00
31911;BME280;18457;52.432;16.914;2023-04-16T00:26:26;100319.27;;;10.72;100.00
31911;BME280;18457;52.432;16.914;2023-04-16T00:28:59;100317.09;;;10.73;100.00
31911;BME280;18457;52.432;16.914;2023-04-16T00:31:32;100320.66;;;10.75;100.00
31911;BME280;18457;52.432;16.914;2023-04-16T00:34:06;100319.21;;;10.75;100.00
31911;BME280;18457;52.432;16.914;2023-04-16T00:36:38;100317.96;;;10.74;100.00
31911;BME280;18457;52.432;16.914;2023-04-16T00:39:10;100313.88;;;10.71;100.00
31911;BME280;18457;52.432;16.914;2023-04-16T00:41:43;100315.45;;;10.74;100.00
31911;BME280;18457;52.432;16.914;2023-04-16T00:44:15;100319.61;;;10.74;100.00
31911;BME280;18457;52.432;16.914;2023-04-16T00:46:47;100319.27;;;10.79;100.00
31911;BME280;18457;52.432;16.914;2023-04-16T00:49:19;100321.79;;;10.73;100.00
31911;BME280;18457;52.432;16.914;2023-04-16T00:51:52;100324.04;;;10.70;100.00
31911;BME280;18457;52.432;16.914;2023-04-16T00:54:25;100326.08;;;10.68;100.00
31911;BME280;18457;52.432;16.914;2023-04-16T00:56:58;100327.52;;;10.68;100.00
31911;BME280;18457;52.432;16.914;2023-04-16T00:59:31;100330.10;;;10.66;100.00
31911;BME280;18457;52.432;16.914;2023-04-16T01:02:03;100327.38;;;10.73;100.00
31911;BME280;18457;52.432;16.914;2023-04-16T01:04:36;100327.27;;;10.78;100.00
31911;BME280;18457;52.432;16.914;2023-04-16T01:07:08;100331.23;;;10.71;100.00
31911;BME280;18457;52.432;16.914;2023-04-16T01:09:41;100330.91;;;10.70;100.00
31911;BME280;18457;52.432;16.914;2023-04-16T01:12:13;100331.91;;;10.74;100.00
31911;BME280;18457;52.432;16.914;2023-04-16T01:14:45;100335.19;;;10.72;100.00
31911;BME280;18457;52.432;16.914;2023-04-16T01:17:18;100329.14;;;10.75;100.00
31911;BME280;18457;52.432;16.914;2023-04-16T01:19:50;100328.48;;;10.80;100.00
31911;BME280;18457;52.432;16.914;2023-04-16T01:22:22;100330.84;;;10.86;100.00
31911;BME280;18457;52.432;16.914;2023-04-16T01:24:54;100330.61;;;10.88;100.00
31911;BME280;18457;52.432;16.914;2023-04-16T01:27:26;100330.05;;;10.88;100.00
31911;BME280;18457;52.432;16.914;2023-04-16T01:29:58;100327.17;;;10.81;100.00
31911;BME280;18457;52.432;16.914;2023-04-16T01:32:41;100329.08;;;10.84;100.00
31911;BME280;18457;52.432;16.914;2023-04-16T01:35:12;100330.73;;;10.83;100.00
31911;BME280;18457;52.432;16.914;2023-04-16T01:37:45;100328.96;;;10.88;100.00
31911;BME280;18457;52.432;16.914;2023-04-16T01:40:17;100331.83;;;10.90;100.00
31911;BME280;18457;52.432;16.914;2023-04-16T01:42:49;100329.88;;;10.88;100.00
31911;BME280;18457;52.432;16.914;2023-04-16T01:45:22;100326.16;;;10.85;100.00
31911;BME280;18457;52.432;16.914;2023-04-16T01:47:54;100334.30;;;10.79;100.00
31911;BME280;18457;52.432;16.914;2023-04-16T01:50:27;100332.09;;;10.72;100.00
31911;BME280;18457;52.432;16.914;2023-04-16T01:53:00;100329.59;;;10.72;100.00
31911;BME280;18457;52.432;16.914;2023-04-16T01:55:34;100330.34;;;10.78;100.00
31911;BME280;18457;52.432;16.914;2023-04-16T01:58:07;100330.27;;;10.81;100.00
31911;BME280;18457;52.432;16.914;2023-04-16T02:00:40;100329.13;;;10.82;100.00
31911;BME280;18457;52.432;16.914;2023-04-16T02:03:12;100330.35;;;10.84;100.00
31911;BME280;18457;52.432;16.914;2023-04-16T02:05:45;100328.20;;;10.83;100.00
31911;BME280;18457;52.432;16.914;2023-04-16T02:08:17;100330.59;;;10.82;100.00
31911;BME280;18457;52.432;16.914;2023-04-16T02:10:51;100329.02;;;10.80;100.00
31911;BME280;18457;52.432;16.914;2023-04-16T02:13:26;100329.79;;;10.78;100.00
31911;BME280;18457;52.432;16.914;2023-04-16T02:15:57;100329.58;;;10.79;100.00
31911;BME280;18457;52.432;16.914;2023-04-16T02:18:50;100330.91;;;10.77;100.00
31911;BME280;18457;52.432;16.914;2023-04-16T02:21:23;100334.25;;;10.80;100.00
31911;BME280;18457;52.432;16.914;2023-04-16T02:23:55;100335.13;;;10.81;100.00
31911;BME280;18457;52.432;16.914;2023-04-16T02:26:30;100341.20;;;10.84;100.00
31911;BME280;18457;52.432;16.914;2023-04-16T02:29:07;100341.70;;;10.85;100.00
31911;BME280;18457;52.432;16.914;2023-04-16T02:31:45;100341.85;;;10.86;100.00
31911;BME280;18457;52.432;16.914;2023-04-16T02:34:17;100338.40;;;10.87;100.00
31911;BME280;18457;52.432;16.914;2023-04-16T02:36:50;100345.27;;;10.87;100.00
31911;BME280;18457;52.432;16.914;2023-04-16T02:39:23;100341.67;;;10.87;100.00
31911;BME280;18457;52.432;16.914;2023-04-16T02:41:57;100346.73;;;10.80;100.00
31911;BME280;18457;52.432;16.914;2023-04-16T02:44:29;100346.40;;;10.79;100.00
31911;BME280;18457;52.432;16.914;2023-04-16T02:47:01;100346.97;;;10.77;100.00
31911;BME280;18457;52.432;16.914;2023-04-16T02:49:33;100348.02;;;10.72;100.00
31911;BME280;18457;52.432;16.914;2023-04-16T02:52:05;100344.59;;;10.72;100.00
31911;BME280;18457;52.432;16.914;2023-04-16T02:54:37;100343.54;;;10.71;100.00
31911;BME280;18457;52.432;16.914;2023-04-16T02:57:10;100344.58;;;10.65;100.00
31911;BME280;18457;52.432;16.914;2023-04-16T02:59:41;100346.75;;;10.65;100.00
31911;BME280;18457;52.432;16.914;2023-04-16T03:02:13;100346.57;;;10.65;100.00
31911;BME280;18457;52.432;16.914;2023-04-16T03:04:44;100345.84;;;10.59;100.00
31911;BME280;18457;52.432;16.914;2023-04-16T03:07:17;100349.13;;;10.57;100.00
31911;BME280;18457;52.432;16.914;2023-04-16T03:09:49;100348.05;;;10.64;100.00
31911;BME280;18457;52.432;16.914;2023-04-16T03:12:21;100346.92;;;10.65;100.00
31911;BME280;18457;52.432;16.914;2023-04-16T03:14:53;100350.23;;;10.70;100.00
31911;BME280;18457;52.432;16.914;2023-04-16T03:17:25;100352.53;;;10.72;100.00
31911;BME280;18457;52.432;16.914;2023-04-16T03:19:58;100354.41;;;10.76;100.00
31911;BME280;18457;52.432;16.914;2023-04-16T03:22:30;100356.59;;;10.76;100.00
31911;BME280;18457;52.432;16.914;2023-04-16T03:25:03;100358.95;;;10.68;100.00
31911;BME280;18457;52.432;16.914;2023-04-16T03:27:35;100357.31;;;10.61;100.00
31911;BME280;18457;52.432;16.914;2023-04-16T03:30:09;100365.03;;;10.63;100.00
31911;BME280;18457;52.432;16.914;2023-04-16T03:32:42;100367.31;;;10.66;100.00
31911;BME280;18457;52.432;16.914;2023-04-16T03:35:15;100368.73;;;10.60;100.00
31911;BME280;18457;52.432;16.914;2023-04-16T03:37:47;100373.21;;;10.62;100.00
31911;BME280;18457;52.432;16.914;2023-04-16T03:40:20;100376.14;;;10.68;100.00
31911;BME280;18457;52.432;16.914;2023-04-16T03:42:51;100373.69;;;10.71;100.00
31911;BME280;18457;52.432;16.914;2023-04-16T03:45:23;100377.23;;;10.74;100.00
31911;BME280;18457;52.432;16.914;2023-04-16T03:47:56;100378.69;;;10.74;100.00
31911;BME280;18457;52.432;16.914;2023-04-16T03:50:28;100382.80;;;10.75;100.00
31911;BME280;18457;52.432;16.914;2023-04-16T03:53:00;100384.19;;;10.78;100.00
31911;BME280;18457;52.432;16.914;2023-04-16T03:55:33;100386.64;;;10.74;100.00
31911;BME280;18457;52.432;16.914;2023-04-16T03:58:05;100390.65;;;10.65;100.00
31911;BME280;18457;52.432;16.914;2023-04-16T04:00:37;100394.64;;;10.65;100.00
31911;BME280;18457;52.432;16.914;2023-04-16T04:03:14;100402.23;;;10.71;100.00
31911;BME280;18457;52.432;16.914;2023-04-16T04:05:50;100400.17;;;10.67;100.00
31911;BME280;18457;52.432;16.914;2023-04-16T04:08:28;100407.89;;;10.69;100.00
31911;BME280;18457;52.432;16.914;2023-04-16T04:11:00;100410.34;;;10.65;100.00
31911;BME280;18457;52.432;16.914;2023-04-16T04:13:33;100414.95;;;10.69;100.00
31911;BME280;18457;52.432;16.914;2023-04-16T04:16:08;100416.69;;;10.72;100.00
31911;BME280;18457;52.432;16.914;2023-04-16T04:18:39;100418.54;;;10.77;100.00
31911;BME280;18457;52.432;16.914;2023-04-16T04:21:14;100419.02;;;10.79;100.00
31911;BME280;18457;52.432;16.914;2023-04-16T04:23:46;100420.73;;;10.83;100.00
31911;BME280;18457;52.432;16.914;2023-04-16T04:26:18;100424.84;;;10.78;100.00
31911;BME280;18457;52.432;16.914;2023-04-16T04:28:50;100428.30;;;10.77;100.00
31911;BME280;18457;52.432;16.914;2023-04-16T04:31:22;100428.39;;;10.81;100.00
31911;BME280;18457;52.432;16.914;2023-04-16T04:33:54;100430.39;;;10.81;100.00
31911;BME280;18457;52.432;16.914;2023-04-16T04:36:26;100431.71;;;10.85;100.00
31911;BME280;18457;52.432;16.914;2023-04-16T04:38:58;100429.39;;;10.84;100.00
31911;BME280;18457;52.432;16.914;2023-04-16T04:41:31;100432.96;;;10.85;100.00
31911;BME280;18457;52.432;16.914;2023-04-16T04:44:04;100437.66;;;10.85;100.00
31911;BME280;18457;52.432;16.914;2023-04-16T04:46:36;100438.16;;;10.80;100.00
31911;BME280;18457;52.432;16.914;2023-04-16T04:49:09;100434.10;;;10.83;100.00
31911;BME280;18457;52.432;16.914;2023-04-16T04:51:41;100437.80;;;10.87;100.00
31911;BME280;18457;52.432;16.914;2023-04-16T04:54:13;100442.29;;;10.88;100.00
31911;BME280;18457;52.432;16.914;2023-04-16T04:56:45;100438.33;;;10.88;100.00
31911;BME280;18457;52.432;16.914;2023-04-16T04:59:18;100443.30;;;10.91;100.00
31911;BME280;18457;52.432;16.914;2023-04-16T05:01:51;100446.90;;;10.92;100.00
31911;BME280;18457;52.432;16.914;2023-04-16T05:04:23;100448.44;;;10.95;100.00
31911;BME280;18457;52.432;16.914;2023-04-16T05:06:55;100448.06;;;10.96;100.00
31911;BME280;18457;52.432;16.914;2023-04-16T05:09:27;100452.58;;;10.96;100.00
31911;BME280;18457;52.432;16.914;2023-04-16T05:11:59;100454.67;;;10.98;100.00
31911;BME280;18457;52.432;16.914;2023-04-16T05:14:31;100455.27;;;10.96;100.00
31911;BME280;18457;52.432;16.914;2023-04-16T05:17:03;100460.86;;;10.97;100.00
31911;BME280;18457;52.432;16.914;2023-04-16T05:19:35;100459.46;;;10.95;100.00
31911;BME280;18457;52.432;16.914;2023-04-16T05:22:07;100463.25;;;10.96;100.00
31911;BME280;18457;52.432;16.914;2023-04-16T05:24:39;100464.92;;;10.94;100.00
31911;BME280;18457;52.432;16.914;2023-04-16T05:27:11;100465.44;;;10.95;100.00
31911;BME280;18457;52.432;16.914;2023-04-16T05:29:42;100468.55;;;11.01;100.00
31911;BME280;18457;52.432;16.914;2023-04-16T05:32:14;100466.30;;;11.04;100.00
31911;BME280;18457;52.432;16.914;2023-04-16T05:34:46;100468.02;;;11.07;100.00
31911;BME280;18457;52.432;16.914;2023-04-16T05:37:18;100473.22;;;11.09;100.00
31911;BME280;18457;52.432;16.914;2023-04-16T05:39:50;100476.83;;;11.09;100.00
31911;BME280;18457;52.432;16.914;2023-04-16T05:42:22;100478.78;;;11.10;100.00
31911;BME280;18457;52.432;16.914;2023-04-16T05:44:53;100475.66;;;11.12;100.00
31911;BME280;18457;52.432;16.914;2023-04-16T05:47:26;100478.15;;;11.14;100.00
31911;BME280;18457;52.432;16.914;2023-04-16T05:49:58;100477.96;;;11.14;100.00
31911;BME280;18457;52.432;16.914;2023-04-16T05:52:30;100482.17;;;11.12;100.00
31911;BME280;18457;52.432;16.914;2023-04-16T05:55:02;100482.79;;;11.16;100.00
31911;BME280;18457;52.432;16.914;2023-04-16T05:57:34;100485.84;;;11.18;100.00
31911;BME280;18457;52.432;16.914;2023-04-16T06:00:08;100488.08;;;11.22;100.00
31911;BME280;18457;52.432;16.914;2023-04-16T06:02:43;100482.19;;;11.26;100.00
31911;BME280;18457;52.432;16.914;2023-04-16T06:05:15;100487.01;;;11.28;100.00
31911;BME280;18457;52.432;16.914;2023-04-16T06:07:47;100488.00;;;11.32;100.00
31911;BME280;18457;52.432;16.914;2023-04-16T06:10:20;100489.11;;;11.31;100.00
31911;BME280;18457;52.432;16.914;2023-04-16T06:12:52;100493.92;;;11.34;100.00
31911;BME280;18457;52.432;16.914;2023-04-16T06:15:25;100504.09;;;11.39;100.00
31911;BME280;18457;52.432;16.914;2023-04-16T06:17:55;100504.77;;;11.41;100.00
31911;BME280;18457;52.432;16.914;2023-04-16T06:20:30;100503.47;;;11.43;100.00
31911;BME280;18457;52.432;16.914;2023-04-16T06:23:02;100508.83;;;11.45;100.00
31911;BME280;18457;52.432;16.914;2023-04-16T06:25:34;100514.11;;;11.44;100.00
31911;BME280;18457;52.432;16.914;2023-04-16T06:28:07;100515.02;;;11.43;100.00
31911;BME280;18457;52.432;16.914;2023-04-16T06:30:39;100520.23;;;11.45;100.00
31911;BME280;18457;52.432;16.914;2023-04-16T06:33:14;100518.86;;;11.49;100.00
31911;BME280;18457;52.432;16.914;2023-04-16T06:35:46;100522.05;;;11.51;100.00
31911;BME280;18457;52.432;16.914;2023-04-16T06:38:18;100523.52;;;11.58;100.00
31911;BME280;18457;52.432;16.914;2023-04-16T06:40:50;100526.20;;;11.59;100.00
31911;BME280;18457;52.432;16.914;2023-04-16T06:43:24;100528.52;;;11.60;100.00
31911;BME280;18457;52.432;16.914;2023-04-16T06:45:57;100527.16;;;11.63;100.00
31911;BME280;18457;52.432;16.914;2023-04-16T06:48:30;100532.88;;;11.67;100.00
31911;BME280;18457;52.432;16.914;2023-04-16T06:51:02;100532.11;;;11.69;100.00
31911;BME280;18457;52.432;16.914;2023-04-16T06:53:35;100532.40;;;11.72;100.00
31911;BME280;18457;52.432;16.914;2023-04-16T06:56:08;100533.78;;;11.74;100.00
31911;BME280;18457;52.432;16.914;2023-04-16T06:58:40;100527.74;;;11.70;100.00
31911;BME280;18457;52.432;16.914;2023-04-16T07:01:12;100534.30;;;11.75;100.00
31911;BME280;18457;52.432;16.914;2023-04-16T07:03:45;100533.13;;;11.72;100.00
31911;BME280;18457;52.432;16.914;2023-04-16T07:06:17;100534.48;;;11.75;100.00
31911;BME280;18457;52.432;16.914;2023-04-16T07:08:50;100536.52;;;11.80;100.00
31911;BME280;18457;52.432;16.914;2023-04-16T07:11:22;100541.77;;;11.86;100.00
31911;BME280;18457;52.432;16.914;2023-04-16T07:13:55;100543.89;;;11.88;100.00
31911;BME280;18457;52.432;16.914;2023-04-16T07:16:28;100546.30;;;11.93;100.00
31911;BME280;18457;52.432;16.914;2023-04-16T07:19:01;100547.91;;;11.93;100.00
31911;BME280;18457;52.432;16.914;2023-04-16T07:21:33;100543.02;;;11.88;100.00
31911;BME280;18457;52.432;16.914;2023-04-16T07:24:06;100551.98;;;11.90;100.00
31911;BME280;18457;52.432;16.914;2023-04-16T07:26:38;100558.23;;;11.87;100.00
31911;BME280;18457;52.432;16.914;2023-04-16T07:29:10;100556.09;;;11.86;100.00
31911;BME280;18457;52.432;16.914;2023-04-16T07:31:43;100559.54;;;11.85;100.00
31911;BME280;18457;52.432;16.914;2023-04-16T07:34:15;100561.45;;;11.88;100.00
31911;BME280;18457;52.432;16.914;2023-04-16T07:36:47;100565.71;;;11.92;100.00
31911;BME280;18457;52.432;16.914;2023-04-16T07:39:19;100570.41;;;11.92;100.00
31911;BME280;18457;52.432;16.914;2023-04-16T07:41:52;100560.92;;;11.81;100.00
31911;BME280;18457;52.432;16.914;2023-04-16T07:44:24;100574.87;;;11.81;100.00
31911;BME280;18457;52.432;16.914;2023-04-16T07:46:56;100574.19;;;11.80;100.00
31911;BME280;18457;52.432;16.914;2023-04-16T07:49:29;100579.02;;;11.75;100.00
31911;BME280;18457;52.432;16.914;2023-04-16T07:52:01;100578.14;;;11.80;100.00
31911;BME280;18457;52.432;16.914;2023-04-16T07:54:33;100580.26;;;11.82;100.00
31911;BME280;18457;52.432;16.914;2023-04-16T07:57:05;100582.93;;;11.91;100.00
31911;BME280;18457;52.432;16.914;2023-04-16T07:59:37;100581.14;;;11.97;100.00
31911;BME280;18457;52.432;16.914;2023-04-16T08:02:15;100585.44;;;11.98;100.00
31911;BME280;18457;52.432;16.914;2023-04-16T08:04:48;100583.88;;;12.02;100.00
31911;BME280;18457;52.432;16.914;2023-04-16T08:07:20;100587.30;;;12.03;100.00
31911;BME280;18457;52.432;16.914;2023-04-16T08:09:53;100585.94;;;12.00;100.00
31911;BME280;18457;52.432;16.914;2023-04-16T08:12:25;100586.56;;;12.04;100.00
31911;BME280;18457;52.432;16.914;2023-04-16T08:14:58;100593.04;;;12.06;100.00
31911;BME280;18457;52.432;16.914;2023-04-16T08:17:31;100592.63;;;12.14;100.00
31911;BME280;18457;52.432;16.914;2023-04-16T08:20:06;100596.27;;;12.19;100.00
31911;BME280;18457;52.432;16.914;2023-04-16T08:22:39;100598.92;;;12.28;100.00
31911;BME280;18457;52.432;16.914;2023-04-16T08:25:12;100601.11;;;12.35;100.00
31911;BME280;18457;52.432;16.914;2023-04-16T08:27:43;100602.54;;;12.41;100.00
31911;BME280;18457;52.432;16.914;2023-04-16T08:30:15;100604.95;;;12.45;100.00
31911;BME280;18457;52.432;16.914;2023-04-16T08:32:48;100600.34;;;12.49;100.00
31911;BME280;18457;52.432;16.914;2023-04-16T08:35:21;100601.81;;;12.54;100.00
31911;BME280;18457;52.432;16.914;2023-04-16T08:37:53;100602.81;;;12.56;100.00
31911;BME280;18457;52.432;16.914;2023-04-16T08:40:26;100604.91;;;12.59;100.00
31911;BME280;18457;52.432;16.914;2023-04-16T08:43:00;100610.42;;;12.63;100.00
31911;BME280;18457;52.432;16.914;2023-04-16T08:45:34;100610.63;;;12.68;100.00
31911;BME280;18457;52.432;16.914;2023-04-16T08:48:08;100615.94;;;12.73;99.97
31911;BME280;18457;52.432;16.914;2023-04-16T08:50:43;100616.14;;;12.78;99.94
31911;BME280;18457;52.432;16.914;2023-04-16T08:53:19;100615.64;;;12.76;98.41
31911;BME280;18457;52.432;16.914;2023-04-16T08:55:55;100620.05;;;12.81;97.38
31911;BME280;18457;52.432;16.914;2023-04-16T08:58:32;100627.06;;;12.89;97.31
31911;BME280;18457;52.432;16.914;2023-04-16T09:01:05;100628.04;;;12.98;98.23
31911;BME280;18457;52.432;16.914;2023-04-16T09:03:41;100631.23;;;13.01;97.85
31911;BME280;18457;52.432;16.914;2023-04-16T09:06:16;100633.88;;;13.04;96.40
31911;BME280;18457;52.432;16.914;2023-04-16T09:08:48;100634.47;;;13.08;97.51
31911;BME280;18457;52.432;16.914;2023-04-16T09:11:24;100639.45;;;13.18;98.72
31911;BME280;18457;52.432;16.914;2023-04-16T09:13:57;100636.98;;;13.22;96.66
31911;BME280;18457;52.432;16.914;2023-04-16T09:16:33;100642.20;;;13.29;98.17
31911;BME280;18457;52.432;16.914;2023-04-16T09:19:06;100642.81;;;13.32;96.03
31911;BME280;18457;52.432;16.914;2023-04-16T09:21:37;100642.36;;;13.35;94.39
31911;BME280;18457;52.432;16.914;2023-04-16T09:24:10;100643.77;;;13.42;93.45
31911;BME280;18457;52.432;16.914;2023-04-16T09:26:43;100646.43;;;13.49;93.29
31911;BME280;18457;52.432;16.914;2023-04-16T09:29:33;100653.52;;;13.55;91.33
31911;BME280;18457;52.432;16.914;2023-04-16T09:32:08;100659.28;;;13.56;90.91
31911;BME280;18457;52.432;16.914;2023-04-16T09:34:57;100658.68;;;13.63;90.54
31911;BME280;18457;52.432;16.914;2023-04-16T09:37:31;100657.96;;;13.74;89.94
31911;BME280;18457;52.432;16.914;2023-04-16T09:40:02;100657.21;;;13.80;90.99
31911;BME280;18457;52.432;16.914;2023-04-16T09:42:36;100657.94;;;13.96;90.40
31911;BME280;18457;52.432;16.914;2023-04-16T09:45:09;100658.23;;;14.14;88.57
31911;BME280;18457;52.432;16.914;2023-04-16T09:47:44;100655.14;;;14.19;86.87
31911;BME280;18457;52.432;16.914;2023-04-16T09:50:16;100655.54;;;14.23;88.48
31911;BME280;18457;52.432;16.914;2023-04-16T09:52:50;100652.73;;;14.37;86.96
31911;BME280;18457;52.432;16.914;2023-04-16T09:55:30;100656.83;;;14.49;83.72
31911;BME280;18457;52.432;16.914;2023-04-16T09:58:04;100663.55;;;14.59;78.86
31911;BME280;18457;52.432;16.914;2023-04-16T10:00:35;100664.22;;;14.56;77.87
31911;BME280;18457;52.432;16.914;2023-04-16T10:03:13;100665.27;;;14.47;77.58
31911;BME280;18457;52.432;16.914;2023-04-16T10:05:47;100660.11;;;14.29;78.62
31911;BME280;18457;52.432;16.914;2023-04-16T10:08:21;100657.70;;;14.19;79.99
31911;BME280;18457;52.432;16.914;2023-04-16T10:10:56;100661.63;;;14.11;81.24
31911;BME280;18457;52.432;16.914;2023-04-16T10:13:28;100667.45;;;14.15;81.95
31911;BME280;18457;52.432;16.914;2023-04-16T10:16:02;100668.83;;;14.07;80.63
31911;BME280;18457;52.432;16.914;2023-04-16T10:18:36;100672.89;;;14.16;80.73
31911;BME280;18457;52.432;16.914;2023-04-16T10:21:09;100667.09;;;14.26;80.83
31911;BME280;18457;52.432;16.914;2023-04-16T10:23:43;100670.15;;;14.22;78.70
31911;BME280;18457;52.432;16.914;2023-04-16T10:26:18;100672.71;;;14.21;78.48
31911;BME280;18457;52.432;16.914;2023-04-16T10:28:51;100666.80;;;14.30;79.01
31911;BME280;18457;52.432;16.914;2023-04-16T10:31:24;100676.77;;;14.19;75.92
31911;BME280;18457;52.432;16.914;2023-04-16T10:34:03;100675.43;;;14.21;75.34
31911;BME280;18457;52.432;16.914;2023-04-16T10:36:38;100673.72;;;14.35;77.58
31911;BME280;18457;52.432;16.914;2023-04-16T10:39:11;100673.11;;;14.36;79.43
31911;BME280;18457;52.432;16.914;2023-04-16T10:41:47;100674.82;;;14.54;77.81
31911;BME280;18457;52.432;16.914;2023-04-16T10:44:19;100676.60;;;14.65;76.37
31911;BME280;18457;52.432;16.914;2023-04-16T10:46:55;100681.33;;;14.55;74.69
31911;BME280;18457;52.432;16.914;2023-04-16T10:49:28;100686.20;;;14.57;76.59
31911;BME280;18457;52.432;16.914;2023-04-16T10:52:00;100684.61;;;14.61;74.49
31911;BME280;18457;52.432;16.914;2023-04-16T10:54:35;100689.02;;;14.49;74.92
31911;BME280;18457;52.432;16.914;2023-04-16T10:57:09;100688.23;;;14.24;76.22
31911;BME280;18457;52.432;16.914;2023-04-16T10:59:42;100675.22;;;14.06;76.70
31911;BME280;18457;52.432;16.914;2023-04-16T11:02:17;100688.41;;;14.13;77.09
31911;BME280;18457;52.432;16.914;2023-04-16T11:04:50;100692.30;;;14.06;75.83
31911;BME280;18457;52.432;16.914;2023-04-16T11:07:32;100688.23;;;14.13;75.92
31911;BME280;18457;52.432;16.914;2023-04-16T11:10:10;100695.98;;;14.10;75.41
31911;BME280;18457;52.432;16.914;2023-04-16T11:12:47;100698.48;;;14.00;74.43
31911;BME280;18457;52.432;16.914;2023-04-16T11:15:22;100701.58;;;14.00;74.85
31911;BME280;18457;52.432;16.914;2023-04-16T11:18:04;100700.00;;;13.88;74.23
31911;BME280;18457;52.432;16.914;2023-04-16T11:20:42;100698.61;;;13.74;75.01
31911;BME280;18457;52.432;16.914;2023-04-16T11:23:17;100698.50;;;13.78;75.90
31911;BME280;18457;52.432;16.914;2023-04-16T11:25:56;100692.70;;;13.72;75.15
31911;BME280;18457;52.432;16.914;2023-04-16T11:28:36;100697.18;;;13.74;76.03
31911;BME280;18457;52.432;16.914;2023-04-16T11:31:12;100702.65;;;13.68;76.26
31911;BME280;18457;52.432;16.914;2023-04-16T11:33:47;100706.91;;;13.60;75.44
31911;BME280;18457;52.432;16.914;2023-04-16T11:36:22;100706.86;;;13.56;76.42
31911;BME280;18457;52.432;16.914;2023-04-16T11:39:16;100706.73;;;13.48;77.57
31911;BME280;18457;52.432;16.914;2023-04-16T11:41:49;100708.89;;;13.31;84.16
31911;BME280;18457;52.432;16.914;2023-04-16T11:44:23;100710.63;;;13.34;86.88
31911;BME280;18457;52.432;16.914;2023-04-16T11:46:57;100707.02;;;13.39;87.67
31911;BME280;18457;52.432;16.914;2023-04-16T11:49:30;100707.98;;;13.32;89.13
31911;BME280;18457;52.432;16.914;2023-04-16T11:52:02;100714.64;;;13.39;88.84
31911;BME280;18457;52.432;16.914;2023-04-16T11:54:34;100710.48;;;13.44;89.12
31911;BME280;18457;52.432;16.914;2023-04-16T11:57:07;100713.77;;;13.43;88.42
31911;BME280;18457;52.432;16.914;2023-04-16T11:59:46;100715.98;;;13.37;89.14
31911;BME280;18457;52.432;16.914;2023-04-16T12:02:43;100719.95;;;13.26;90.78
31911;BME280;18457;52.432;16.914;2023-04-16T12:05:29;100714.13;;;13.20;92.90
31911;BME280;18457;52.432;16.914;2023-04-16T12:08:03;100719.63;;;13.18;92.51
31911;BME280;18457;52.432;16.914;2023-04-16T12:10:52;100719.21;;;13.20;92.11
31911;BME280;18457;52.432;16.914;2023-04-16T12:13:24;100720.86;;;13.19;92.21
31911;BME280;18457;52.432;16.914;2023-04-16T12:15:57;100717.67;;;13.29;92.12
31911;BME280;18457;52.432;16.914;2023-04-16T12:18:28;100720.39;;;13.35;91.98
31911;BME280;18457;52.432;16.914;2023-04-16T12:21:03;100722.67;;;13.25;91.70
31911;BME280;18457;52.432;16.914;2023-04-16T12:23:35;100727.30;;;13.16;91.37
31911;BME280;18457;52.432;16.914;2023-04-16T12:26:08;100721.80;;;13.18;91.76
31911;BME280;18457;52.432;16.914;2023-04-16T12:28:41;100722.83;;;13.14;92.74
31911;BME280;18457;52.432;16.914;2023-04-16T12:31:13;100721.94;;;13.20;92.70
31911;BME280;18457;52.432;16.914;2023-04-16T12:34:02;100726.93;;;13.35;95.11
31911;BME280;18457;52.432;16.914;2023-04-16T12:36:34;100724.75;;;14.33;99.01
31911;BME280;18457;52.432;16.914;2023-04-16T12:39:06;100729.05;;;15.07;100.00
31911;BME280;18457;52.432;16.914;2023-04-16T12:41:37;100727.52;;;15.62;100.00
31911;BME280;18457;52.432;16.914;2023-04-16T12:44:11;100725.84;;;15.72;100.00
31911;BME280;18457;52.432;16.914;2023-04-16T12:46:44;100725.98;;;15.68;97.89
31911;BME280;18457;52.432;16.914;2023-04-16T12:49:16;100729.16;;;15.62;99.63
31911;BME280;18457;52.432;16.914;2023-04-16T12:51:49;100730.58;;;15.95;100.00
31911;BME280;18457;52.432;16.914;2023-04-16T12:54:21;100731.06;;;15.86;94.62
31911;BME280;18457;52.432;16.914;2023-04-16T12:56:53;100731.08;;;15.50;95.52
31911;BME280;18457;52.432;16.914;2023-04-16T12:59:25;100729.38;;;16.14;99.52
31911;BME280;18457;52.432;16.914;2023-04-16T13:01:59;100727.23;;;16.48;94.97
31911;BME280;18457;52.432;16.914;2023-04-16T13:04:32;100736.83;;;15.66;83.09